createdAt,value
2017-03-30T00:00:03.389Z,0
2017-03-30T00:00:43.844Z,0
2017-03-30T00:01:24.341Z,0
2017-03-30T00:02:04.845Z,0
2017-03-30T00:02:45.333Z,0
2017-03-30T00:03:25.806Z,0
2017-03-30T00:04:06.320Z,0
2017-03-30T00:04:46.781Z,0
2017-03-30T00:05:27.261Z,0
2017-03-30T00:06:07.771Z,0
2017-03-30T00:06:48.243Z,0
2017-03-30T00:07:28.771Z,0
2017-03-30T00:08:09.243Z,0
2017-03-30T00:08:49.720Z,0
2017-03-30T00:09:30.203Z,0
2017-03-30T00:10:10.678Z,0
2017-03-30T00:10:51.172Z,0
2017-03-30T00:11:31.640Z,0
2017-03-30T00:12:12.096Z,0
2017-03-30T00:12:52.590Z,0
2017-03-30T00:13:33.104Z,0
2017-03-30T00:14:13.638Z,0
2017-03-30T00:14:54.132Z,0
2017-03-30T00:15:34.619Z,0
2017-03-30T00:16:15.098Z,0
2017-03-30T00:16:55.607Z,0
2017-03-30T00:17:36.126Z,0
2017-03-30T00:18:16.587Z,0
2017-03-30T00:18:57.041Z,0
2017-03-30T00:19:37.520Z,0
2017-03-30T00:20:18.001Z,0
2017-03-30T00:20:58.457Z,0
2017-03-30T00:21:38.954Z,0
2017-03-30T00:22:19.457Z,0
2017-03-30T00:22:59.958Z,0
2017-03-30T00:23:40.448Z,0
2017-03-30T00:24:20.961Z,0
2017-03-30T00:25:01.417Z,0
2017-03-30T00:25:41.877Z,0
2017-03-30T00:26:22.383Z,0
2017-03-30T00:27:02.868Z,0
2017-03-30T00:27:43.344Z,0
2017-03-30T00:28:23.830Z,0
2017-03-30T00:29:04.337Z,0
2017-03-30T00:29:44.818Z,0
2017-03-30T00:30:25.290Z,0
2017-03-30T00:31:05.765Z,0
2017-03-30T00:31:46.251Z,0
2017-03-30T00:32:26.735Z,0
2017-03-30T00:33:07.187Z,0
2017-03-30T00:33:47.698Z,0
2017-03-30T00:34:28.169Z,0
2017-03-30T00:35:08.647Z,0
2017-03-30T00:35:49.190Z,0
2017-03-30T00:36:29.643Z,0
2017-03-30T00:37:10.164Z,0
2017-03-30T00:37:50.661Z,0
2017-03-30T00:38:31.147Z,0
2017-03-30T00:39:11.632Z,0
2017-03-30T00:39:52.140Z,0
2017-03-30T00:40:32.607Z,0
2017-03-30T00:41:13.111Z,0
2017-03-30T00:41:53.621Z,0
2017-03-30T00:42:34.106Z,0
2017-03-30T00:43:14.652Z,0
2017-03-30T00:43:55.075Z,0
2017-03-30T00:44:35.590Z,0
2017-03-30T00:45:16.084Z,0
2017-03-30T00:45:56.537Z,0
2017-03-30T00:46:37.043Z,0
2017-03-30T00:47:17.544Z,0
2017-03-30T00:47:58.041Z,0
2017-03-30T00:48:38.535Z,0
2017-03-30T00:49:19.004Z,0
2017-03-30T00:49:59.504Z,0
2017-03-30T00:50:39.989Z,0
2017-03-30T00:51:20.442Z,0
2017-03-30T00:52:00.935Z,0
2017-03-30T00:52:41.411Z,0
2017-03-30T00:53:21.917Z,0
2017-03-30T00:54:02.430Z,0
2017-03-30T00:54:42.874Z,0
2017-03-30T00:55:23.387Z,0
2017-03-30T00:56:03.885Z,0
2017-03-30T00:56:44.395Z,0
2017-03-30T00:57:24.863Z,0
2017-03-30T00:58:05.354Z,0
2017-03-30T00:58:45.859Z,0
2017-03-30T00:59:26.416Z,0
2017-03-30T01:00:06.906Z,0
2017-03-30T01:00:47.388Z,0
2017-03-30T01:01:27.893Z,0
2017-03-30T01:02:08.379Z,0
2017-03-30T01:02:48.853Z,0
2017-03-30T01:03:29.354Z,0
2017-03-30T01:05:47.365Z,0
2017-03-30T01:06:27.769Z,0
2017-03-30T01:07:08.236Z,0
2017-03-30T01:07:48.726Z,0
2017-03-30T01:08:29.209Z,0
2017-03-30T01:09:09.677Z,0
2017-03-30T01:09:51.163Z,0
2017-03-30T01:10:31.611Z,0
2017-03-30T01:11:12.095Z,0
2017-03-30T01:11:52.585Z,0
2017-03-30T01:12:33.061Z,0
2017-03-30T01:13:13.540Z,0
2017-03-30T01:13:54.028Z,0
2017-03-30T01:14:34.518Z,0
2017-03-30T01:15:14.987Z,0
2017-03-30T01:15:55.477Z,0
2017-03-30T01:16:35.966Z,0
2017-03-30T01:17:16.473Z,0
2017-03-30T01:17:56.953Z,0
2017-03-30T01:18:37.407Z,0
2017-03-30T01:19:17.901Z,0
2017-03-30T01:19:58.377Z,0
2017-03-30T01:20:38.849Z,0
2017-03-30T01:21:19.360Z,0
2017-03-30T01:21:59.945Z,0
2017-03-30T01:22:40.398Z,0
2017-03-30T01:23:20.872Z,0
2017-03-30T01:24:01.356Z,0
2017-03-30T01:24:41.831Z,0
2017-03-30T01:25:22.341Z,0
2017-03-30T01:26:02.857Z,0
2017-03-30T01:26:43.314Z,0
2017-03-30T01:27:23.804Z,0
2017-03-30T01:28:04.311Z,0
2017-03-30T01:28:44.807Z,0
2017-03-30T01:29:25.264Z,0
2017-03-30T01:30:05.717Z,0
2017-03-30T01:30:46.271Z,0
2017-03-30T01:31:26.789Z,0
2017-03-30T01:32:07.267Z,0
2017-03-30T01:32:47.773Z,0
2017-03-30T01:33:28.230Z,0
2017-03-30T01:34:08.732Z,0
2017-03-30T01:34:49.223Z,0
2017-03-30T01:35:29.708Z,0
2017-03-30T01:36:10.164Z,0
2017-03-30T01:36:50.651Z,0
2017-03-30T01:37:31.138Z,0
2017-03-30T01:38:11.592Z,0
2017-03-30T01:38:52.075Z,0
2017-03-30T01:39:32.585Z,0
2017-03-30T01:40:13.028Z,0
2017-03-30T01:40:53.513Z,0
2017-03-30T01:41:34.015Z,0
2017-03-30T01:42:14.489Z,0
2017-03-30T01:42:55.202Z,0
2017-03-30T01:43:35.646Z,0
2017-03-30T01:44:16.125Z,0
2017-03-30T01:44:56.614Z,0
2017-03-30T01:45:37.075Z,0
2017-03-30T01:46:17.543Z,0
2017-03-30T01:46:58.071Z,0
2017-03-30T01:47:38.554Z,0
2017-03-30T01:48:19.020Z,0
2017-03-30T01:48:59.498Z,0
2017-03-30T01:49:40.003Z,0
2017-03-30T01:50:20.433Z,0
2017-03-30T01:51:00.916Z,0
2017-03-30T01:51:41.387Z,0
2017-03-30T01:52:21.844Z,0
2017-03-30T01:53:02.323Z,0
2017-03-30T01:53:42.819Z,0
2017-03-30T01:54:23.293Z,0
2017-03-30T01:55:04.029Z,0
2017-03-30T01:55:44.509Z,0
2017-03-30T01:56:24.983Z,0
2017-03-30T01:57:05.461Z,0
2017-03-30T01:57:45.947Z,0
2017-03-30T01:58:26.448Z,0
2017-03-30T01:59:06.925Z,0
2017-03-30T01:59:47.401Z,0
2017-03-30T02:00:27.864Z,0
2017-03-30T02:01:08.343Z,0
2017-03-30T02:01:48.804Z,0
2017-03-30T02:02:29.296Z,0
2017-03-30T02:03:09.808Z,0
2017-03-30T02:03:50.309Z,0
2017-03-30T02:04:30.791Z,0
2017-03-30T02:05:11.388Z,0
2017-03-30T02:05:51.880Z,0
2017-03-30T02:06:32.372Z,0
2017-03-30T02:07:12.859Z,0
2017-03-30T02:07:53.334Z,0
2017-03-30T02:08:33.841Z,0
2017-03-30T02:09:14.317Z,0
2017-03-30T02:09:54.800Z,0
2017-03-30T02:10:35.309Z,0
2017-03-30T02:11:15.787Z,0
2017-03-30T02:11:56.301Z,0
2017-03-30T02:12:36.750Z,0
2017-03-30T02:13:17.216Z,0
2017-03-30T02:13:57.688Z,0
2017-03-30T02:14:38.180Z,0
2017-03-30T02:15:18.641Z,0
2017-03-30T02:15:59.223Z,0
2017-03-30T02:16:39.722Z,0
2017-03-30T02:17:20.236Z,0
2017-03-30T02:18:00.730Z,0
2017-03-30T02:20:14.914Z,0
2017-03-30T02:20:55.373Z,0
2017-03-30T02:21:35.859Z,0
2017-03-30T02:22:16.361Z,0
2017-03-30T02:22:56.873Z,0
2017-03-30T02:23:37.344Z,0
2017-03-30T02:24:17.823Z,0
2017-03-30T02:24:58.302Z,0
2017-03-30T02:25:38.800Z,0
2017-03-30T02:26:19.317Z,0
2017-03-30T02:26:59.784Z,0
2017-03-30T02:27:40.274Z,0
2017-03-30T02:28:20.777Z,0
2017-03-30T02:29:01.247Z,0
2017-03-30T02:29:41.713Z,0
2017-03-30T02:30:22.191Z,0
2017-03-30T02:31:02.681Z,0
2017-03-30T02:31:43.153Z,0
2017-03-30T02:32:23.669Z,0
2017-03-30T02:33:04.122Z,0
2017-03-30T02:33:44.592Z,0
2017-03-30T02:34:25.086Z,0
2017-03-30T02:35:05.565Z,0
2017-03-30T02:35:46.043Z,0
2017-03-30T02:36:26.549Z,0
2017-03-30T02:37:07.039Z,0
2017-03-30T02:37:47.510Z,0
2017-03-30T02:38:28.016Z,0
2017-03-30T02:39:08.492Z,0
2017-03-30T02:39:49.016Z,0
2017-03-30T02:40:29.458Z,0
2017-03-30T02:41:09.936Z,0
2017-03-30T02:41:50.441Z,0
2017-03-30T02:42:30.949Z,0
2017-03-30T02:43:11.424Z,0
2017-03-30T02:43:51.937Z,0
2017-03-30T02:44:32.415Z,0
2017-03-30T02:45:12.899Z,0
2017-03-30T02:45:53.402Z,0
2017-03-30T02:46:33.869Z,0
2017-03-30T02:47:14.343Z,0
2017-03-30T02:47:54.816Z,0
2017-03-30T02:48:35.318Z,0
2017-03-30T02:49:15.770Z,0
2017-03-30T02:49:56.240Z,0
2017-03-30T02:50:36.721Z,0
2017-03-30T02:51:17.236Z,0
2017-03-30T02:51:57.689Z,0
2017-03-30T02:52:38.212Z,0
2017-03-30T02:53:18.692Z,0
2017-03-30T02:53:59.197Z,0
2017-03-30T02:54:39.710Z,0
2017-03-30T02:55:20.198Z,0
2017-03-30T02:56:00.703Z,0
2017-03-30T02:56:41.189Z,0
2017-03-30T02:57:21.684Z,0
2017-03-30T02:58:02.178Z,0
2017-03-30T02:58:42.639Z,0
2017-03-30T02:59:23.134Z,0
2017-03-30T03:00:03.569Z,0
2017-03-30T03:00:44.101Z,0
2017-03-30T03:01:24.581Z,0
2017-03-30T03:02:05.085Z,0
2017-03-30T03:02:45.582Z,0
2017-03-30T03:03:26.054Z,0
2017-03-30T03:04:06.530Z,0
2017-03-30T03:04:47.020Z,0
2017-03-30T03:05:27.479Z,0
2017-03-30T03:06:07.993Z,0
2017-03-30T03:06:48.455Z,0
2017-03-30T03:07:29.005Z,0
2017-03-30T03:08:09.411Z,0
2017-03-30T03:08:49.901Z,0
2017-03-30T03:09:30.402Z,0
2017-03-30T03:10:10.894Z,0
2017-03-30T03:10:51.362Z,0
2017-03-30T03:11:31.840Z,0
2017-03-30T03:12:12.328Z,0
2017-03-30T03:12:52.839Z,0
2017-03-30T03:13:33.310Z,0
2017-03-30T03:14:13.812Z,0
2017-03-30T03:14:54.289Z,0
2017-03-30T03:15:34.797Z,0
2017-03-30T03:16:15.298Z,0
2017-03-30T03:16:55.751Z,0
2017-03-30T03:17:36.256Z,0
2017-03-30T03:18:18.635Z,0
2017-03-30T03:18:59.105Z,0
2017-03-30T03:19:39.599Z,0
2017-03-30T03:20:20.068Z,0
2017-03-30T03:21:00.542Z,0
2017-03-30T03:21:40.996Z,0
2017-03-30T03:22:21.494Z,0
2017-03-30T03:23:01.926Z,0
2017-03-30T03:23:42.422Z,0
2017-03-30T03:24:22.930Z,0
2017-03-30T03:25:03.401Z,0
2017-03-30T03:25:43.864Z,0
2017-03-30T03:26:24.357Z,0
2017-03-30T03:27:04.798Z,0
2017-03-30T03:27:45.265Z,0
2017-03-30T03:28:25.761Z,0
2017-03-30T03:29:06.282Z,0
2017-03-30T03:29:46.755Z,0
2017-03-30T03:30:27.237Z,0
2017-03-30T03:31:07.698Z,0
2017-03-30T03:31:48.208Z,0
2017-03-30T03:32:28.679Z,0
2017-03-30T03:33:09.144Z,0
2017-03-30T03:33:49.635Z,0
2017-03-30T03:34:30.130Z,0
2017-03-30T03:35:10.601Z,0
2017-03-30T03:35:51.096Z,0
2017-03-30T03:36:31.583Z,0
2017-03-30T03:37:12.086Z,0
2017-03-30T03:37:52.578Z,0
2017-03-30T03:38:33.045Z,0
2017-03-30T03:39:13.541Z,0
2017-03-30T03:39:54.082Z,0
2017-03-30T03:40:34.549Z,0
2017-03-30T03:41:15.070Z,0
2017-03-30T03:41:55.556Z,0
2017-03-30T03:42:35.991Z,0
2017-03-30T03:43:16.498Z,0
2017-03-30T03:43:56.984Z,0
2017-03-30T03:44:37.479Z,0
2017-03-30T03:45:17.980Z,0
2017-03-30T03:45:58.443Z,0
2017-03-30T03:46:38.933Z,0
2017-03-30T03:47:19.429Z,0
2017-03-30T03:47:59.895Z,0
2017-03-30T03:48:40.395Z,0
2017-03-30T03:49:20.881Z,0
2017-03-30T03:50:01.341Z,0
2017-03-30T03:50:41.811Z,0
2017-03-30T03:51:22.298Z,0
2017-03-30T03:52:02.777Z,0
2017-03-30T03:52:43.276Z,0
2017-03-30T03:53:23.790Z,0
2017-03-30T03:54:04.251Z,0
2017-03-30T03:54:44.734Z,0
2017-03-30T03:55:25.231Z,0
2017-03-30T03:56:05.714Z,0
2017-03-30T03:56:46.228Z,0
2017-03-30T03:57:26.723Z,0
2017-03-30T03:58:07.183Z,0
2017-03-30T03:58:47.673Z,0
2017-03-30T03:59:28.179Z,0
2017-03-30T04:00:08.667Z,0
2017-03-30T04:00:49.152Z,0
2017-03-30T04:01:29.631Z,0
2017-03-30T04:02:10.137Z,0
2017-03-30T04:02:50.604Z,0
2017-03-30T04:03:31.075Z,0
2017-03-30T04:04:11.557Z,0
2017-03-30T04:04:52.098Z,0
2017-03-30T04:05:32.600Z,0
2017-03-30T04:06:13.072Z,0
2017-03-30T04:06:53.563Z,0
2017-03-30T04:07:34.038Z,0
2017-03-30T04:08:14.507Z,0
2017-03-30T04:08:55.005Z,0
2017-03-30T04:09:35.476Z,0
2017-03-30T04:10:15.937Z,0
2017-03-30T04:10:56.401Z,0
2017-03-30T04:11:36.905Z,0
2017-03-30T04:12:17.374Z,0
2017-03-30T04:12:57.881Z,0
2017-03-30T04:13:38.369Z,0
2017-03-30T04:14:18.900Z,0
2017-03-30T04:14:59.361Z,0
2017-03-30T04:15:39.839Z,0
2017-03-30T04:16:20.282Z,0
2017-03-30T04:17:00.790Z,0
2017-03-30T04:17:41.278Z,0
2017-03-30T04:18:21.757Z,0
2017-03-30T04:19:02.236Z,0
2017-03-30T04:19:42.713Z,0
2017-03-30T04:20:23.198Z,0
2017-03-30T04:21:03.667Z,0
2017-03-30T04:23:21.967Z,0
2017-03-30T04:24:02.414Z,0
2017-03-30T04:24:42.868Z,0
2017-03-30T04:25:23.330Z,0
2017-03-30T04:26:03.827Z,0
2017-03-30T04:26:44.406Z,0
2017-03-30T04:27:24.888Z,0
2017-03-30T04:28:05.370Z,0
2017-03-30T04:28:45.844Z,0
2017-03-30T04:29:26.319Z,0
2017-03-30T04:30:06.816Z,0
2017-03-30T04:30:47.280Z,0
2017-03-30T04:31:27.743Z,0
2017-03-30T04:32:08.210Z,0
2017-03-30T04:32:48.726Z,4
2017-03-30T04:33:29.174Z,4
2017-03-30T04:34:09.633Z,4
2017-03-30T04:34:50.103Z,0
2017-03-30T04:35:30.561Z,0
2017-03-30T04:36:11.053Z,4
2017-03-30T04:36:51.548Z,4
2017-03-30T04:37:32.048Z,4
2017-03-30T04:38:12.518Z,4
2017-03-30T04:38:52.967Z,4
2017-03-30T04:39:33.464Z,4
2017-03-30T04:40:13.955Z,8
2017-03-30T04:40:54.436Z,4
2017-03-30T04:41:34.911Z,8
2017-03-30T04:42:15.399Z,8
2017-03-30T04:42:55.889Z,8
2017-03-30T04:43:36.401Z,8
2017-03-30T04:44:16.864Z,12
2017-03-30T04:44:57.344Z,8
2017-03-30T04:45:37.841Z,16
2017-03-30T04:46:18.336Z,16
2017-03-30T04:46:58.811Z,16
2017-03-30T04:47:39.298Z,16
2017-03-30T04:48:19.772Z,16
2017-03-30T04:49:00.291Z,20
2017-03-30T04:49:40.767Z,16
2017-03-30T04:50:21.252Z,16
2017-03-30T04:51:01.756Z,20
2017-03-30T04:51:42.258Z,24
2017-03-30T04:52:22.737Z,24
2017-03-30T04:53:03.220Z,28
2017-03-30T04:53:43.693Z,28
2017-03-30T04:54:24.212Z,28
2017-03-30T04:55:04.671Z,28
2017-03-30T04:55:45.157Z,32
2017-03-30T04:56:25.619Z,40
2017-03-30T04:57:06.096Z,40
2017-03-30T04:57:46.563Z,48
2017-03-30T04:58:27.038Z,48
2017-03-30T04:59:07.576Z,52
2017-03-30T04:59:48.072Z,52
2017-03-30T05:00:28.555Z,52
2017-03-30T05:01:09.035Z,56
2017-03-30T05:01:49.570Z,56
2017-03-30T05:02:30.093Z,64
2017-03-30T05:03:10.575Z,64
2017-03-30T05:03:51.056Z,68
2017-03-30T05:04:31.553Z,80
2017-03-30T05:05:12.020Z,88
2017-03-30T05:05:52.498Z,92
2017-03-30T05:06:32.967Z,92
2017-03-30T05:07:13.452Z,104
2017-03-30T05:07:53.923Z,112
2017-03-30T05:08:34.439Z,112
2017-03-30T05:09:14.893Z,120
2017-03-30T05:09:55.374Z,128
2017-03-30T05:10:35.851Z,140
2017-03-30T05:11:16.339Z,148
2017-03-30T05:11:56.835Z,144
2017-03-30T05:14:15.143Z,188
2017-03-30T05:14:55.635Z,208
2017-03-30T05:15:36.117Z,232
2017-03-30T05:16:16.584Z,248
2017-03-30T05:16:57.047Z,268
2017-03-30T05:17:37.517Z,304
2017-03-30T05:18:18.004Z,328
2017-03-30T05:18:58.480Z,348
2017-03-30T05:19:38.963Z,372
2017-03-30T05:20:19.465Z,380
2017-03-30T05:20:59.963Z,364
2017-03-30T05:21:40.472Z,356
2017-03-30T05:22:20.995Z,368
2017-03-30T05:23:01.499Z,388
2017-03-30T05:23:48.508Z,432
2017-03-30T05:24:28.962Z,464
2017-03-30T05:25:09.460Z,480
2017-03-30T05:25:49.994Z,460
2017-03-30T05:26:30.503Z,412
2017-03-30T05:27:11.028Z,344
2017-03-30T05:27:51.506Z,288
2017-03-30T05:28:32.016Z,256
2017-03-30T05:29:12.502Z,232
2017-03-30T05:29:52.958Z,220
2017-03-30T05:30:33.496Z,204
2017-03-30T05:31:13.952Z,216
2017-03-30T05:31:54.456Z,232
2017-03-30T05:32:34.912Z,236
2017-03-30T05:33:15.382Z,220
2017-03-30T05:33:55.866Z,216
2017-03-30T05:34:36.340Z,216
2017-03-30T05:35:16.813Z,204
2017-03-30T05:35:57.304Z,208
2017-03-30T05:36:37.780Z,244
2017-03-30T05:37:18.261Z,252
2017-03-30T05:37:58.755Z,252
2017-03-30T05:38:39.215Z,236
2017-03-30T05:39:19.688Z,304
2017-03-30T05:40:00.212Z,364
2017-03-30T05:40:40.695Z,416
2017-03-30T05:41:21.151Z,460
2017-03-30T05:42:01.625Z,552
2017-03-30T05:42:42.130Z,608
2017-03-30T05:43:22.632Z,588
2017-03-30T05:44:03.159Z,528
2017-03-30T05:44:43.615Z,512
2017-03-30T05:45:24.093Z,612
2017-03-30T05:46:04.597Z,572
2017-03-30T05:46:45.053Z,492
2017-03-30T05:47:25.526Z,524
2017-03-30T05:48:06.059Z,600
2017-03-30T05:48:46.544Z,552
2017-03-30T05:49:27.013Z,456
2017-03-30T05:50:07.495Z,488
2017-03-30T05:50:47.956Z,588
2017-03-30T05:51:28.414Z,540
2017-03-30T05:52:09.643Z,408
2017-03-30T05:52:50.122Z,624
2017-03-30T05:53:30.649Z,532
2017-03-30T05:54:11.155Z,540
2017-03-30T05:54:51.654Z,712
2017-03-30T05:55:32.199Z,780
2017-03-30T05:56:12.675Z,824
2017-03-30T05:56:53.206Z,1152
2017-03-30T05:57:33.674Z,884
2017-03-30T05:58:14.264Z,772
2017-03-30T05:58:54.669Z,752
2017-03-30T05:59:35.170Z,672
2017-03-30T06:00:15.671Z,772
2017-03-30T06:00:56.128Z,916
2017-03-30T06:01:36.623Z,884
2017-03-30T06:02:17.147Z,892
2017-03-30T06:04:31.381Z,728
2017-03-30T06:05:11.810Z,736
2017-03-30T06:05:52.334Z,676
2017-03-30T06:06:32.789Z,596
2017-03-30T06:07:13.281Z,532
2017-03-30T06:07:53.781Z,640
2017-03-30T06:08:34.262Z,576
2017-03-30T06:09:14.784Z,552
2017-03-30T06:09:55.274Z,568
2017-03-30T06:10:35.724Z,548
2017-03-30T06:11:16.183Z,428
2017-03-30T06:11:56.649Z,380
2017-03-30T06:12:37.192Z,364
2017-03-30T06:13:17.692Z,376
2017-03-30T06:13:59.049Z,412
2017-03-30T06:14:40.046Z,364
2017-03-30T06:15:20.552Z,388
2017-03-30T06:16:02.657Z,436
2017-03-30T06:16:43.142Z,404
2017-03-30T06:17:23.651Z,424
2017-03-30T06:18:04.129Z,412
2017-03-30T06:18:44.595Z,432
2017-03-30T06:19:25.100Z,440
2017-03-30T06:20:05.559Z,496
2017-03-30T06:20:46.063Z,464
2017-03-30T06:21:26.600Z,524
2017-03-30T06:22:07.103Z,536
2017-03-30T06:22:47.545Z,716
2017-03-30T06:23:28.013Z,700
2017-03-30T06:24:08.536Z,784
2017-03-30T06:24:48.982Z,804
2017-03-30T06:25:29.551Z,896
2017-03-30T06:26:10.032Z,1012
2017-03-30T06:26:50.519Z,900
2017-03-30T06:27:30.990Z,1008
2017-03-30T06:28:11.487Z,948
2017-03-30T06:28:51.981Z,996
2017-03-30T06:29:32.477Z,1048
2017-03-30T06:30:13.717Z,1036
2017-03-30T06:30:54.235Z,964
2017-03-30T06:31:34.735Z,984
2017-03-30T06:32:15.251Z,936
2017-03-30T06:32:55.708Z,808
2017-03-30T06:33:36.170Z,836
2017-03-30T06:34:16.698Z,920
2017-03-30T06:34:57.195Z,728
2017-03-30T06:35:37.639Z,772
2017-03-30T06:36:18.125Z,712
2017-03-30T06:36:58.594Z,708
2017-03-30T06:37:39.079Z,724
2017-03-30T06:38:19.588Z,672
2017-03-30T06:39:00.106Z,584
2017-03-30T06:39:40.629Z,728
2017-03-30T06:40:21.105Z,712
2017-03-30T06:41:01.584Z,700
2017-03-30T06:41:42.069Z,772
2017-03-30T06:42:22.552Z,720
2017-03-30T06:43:03.066Z,780
2017-03-30T06:43:43.546Z,832
2017-03-30T06:44:24.051Z,800
2017-03-30T06:45:04.551Z,852
2017-03-30T06:45:45.048Z,928
2017-03-30T06:46:25.539Z,1140
2017-03-30T06:47:06.056Z,1512
2017-03-30T06:47:51.605Z,1752
2017-03-30T06:48:34.907Z,1948
2017-03-30T06:49:15.414Z,2064
2017-03-30T06:49:55.855Z,1640
2017-03-30T06:50:36.350Z,1744
2017-03-30T06:51:16.845Z,1604
2017-03-30T06:51:57.339Z,2036
2017-03-30T06:52:37.843Z,2456
2017-03-30T06:53:18.316Z,2564
2017-03-30T06:53:58.826Z,2728
2017-03-30T06:54:40.883Z,2708
2017-03-30T06:55:21.000Z,2740
2017-03-30T06:56:01.500Z,2324
2017-03-30T06:56:41.987Z,2308
2017-03-30T06:57:22.513Z,2144
2017-03-30T06:58:02.995Z,1612
2017-03-30T06:58:43.506Z,1328
2017-03-30T06:59:23.987Z,1072
2017-03-30T07:00:05.469Z,1084
2017-03-30T07:00:46.006Z,1288
2017-03-30T07:01:26.482Z,1532
2017-03-30T07:02:06.954Z,1772
2017-03-30T07:02:47.431Z,1852
2017-03-30T07:03:27.974Z,1872
2017-03-30T07:04:08.501Z,1808
2017-03-30T07:04:49.009Z,1768
2017-03-30T07:05:30.255Z,2136
2017-03-30T07:06:11.880Z,2260
2017-03-30T07:06:52.904Z,2404
2017-03-30T07:07:33.387Z,2432
2017-03-30T07:08:13.886Z,2604
2017-03-30T07:08:54.649Z,2508
2017-03-30T07:09:38.347Z,2276
2017-03-30T07:10:18.951Z,2068
2017-03-30T07:11:01.330Z,1908
2017-03-30T07:11:45.947Z,2124
2017-03-30T07:12:29.837Z,1924
2017-03-30T07:13:14.917Z,1828
2017-03-30T07:13:56.903Z,1812
2017-03-30T07:14:38.264Z,1860
2017-03-30T07:15:19.725Z,2024
2017-03-30T07:16:00.219Z,2004
2017-03-30T07:16:41.635Z,2380
2017-03-30T07:17:22.120Z,2588
2017-03-30T07:18:02.636Z,2772
2017-03-30T07:18:43.352Z,2864
2017-03-30T07:19:23.808Z,2680
2017-03-30T07:20:04.302Z,2356
2017-03-30T07:20:45.483Z,2336
2017-03-30T07:21:28.837Z,2204
2017-03-30T07:22:09.327Z,2156
2017-03-30T07:22:49.900Z,2348
2017-03-30T07:23:30.392Z,2544
2017-03-30T07:24:10.908Z,3052
2017-03-30T07:24:51.381Z,3272
2017-03-30T07:25:31.868Z,3120
2017-03-30T07:26:12.430Z,3304
2017-03-30T07:26:53.006Z,3784
2017-03-30T07:27:34.947Z,3976
2017-03-30T07:28:15.437Z,3504
2017-03-30T07:28:55.925Z,3492
2017-03-30T07:29:36.411Z,3596
2017-03-30T07:30:16.917Z,3544
2017-03-30T07:30:57.517Z,3916
2017-03-30T07:31:38.160Z,3952
2017-03-30T07:32:18.634Z,3956
2017-03-30T07:32:59.516Z,3980
2017-03-30T07:33:40.042Z,3988
2017-03-30T07:34:20.573Z,4000
2017-03-30T07:36:54.583Z,2668
2017-03-30T07:37:35.385Z,3016
2017-03-30T07:38:15.892Z,3196
2017-03-30T07:38:56.803Z,3112
2017-03-30T07:39:38.402Z,3084
2017-03-30T07:40:18.962Z,2996
2017-03-30T07:40:59.396Z,2868
2017-03-30T07:41:39.883Z,2624
2017-03-30T07:42:20.398Z,2836
2017-03-30T07:43:00.838Z,2856
2017-03-30T07:43:41.388Z,2692
2017-03-30T07:44:21.950Z,2620
2017-03-30T07:45:02.821Z,2560
2017-03-30T07:45:43.287Z,2740
2017-03-30T07:46:24.149Z,2960
2017-03-30T07:47:04.760Z,2704
2017-03-30T07:47:45.269Z,2548
2017-03-30T07:48:25.718Z,2392
2017-03-30T07:49:06.302Z,2288
2017-03-30T07:49:46.806Z,2352
2017-03-30T07:50:27.308Z,2404
2017-03-30T07:51:07.776Z,2624
2017-03-30T07:51:48.343Z,2900
2017-03-30T07:52:28.840Z,2852
2017-03-30T07:53:10.051Z,2492
2017-03-30T07:53:50.540Z,2528
2017-03-30T07:54:31.022Z,2564
2017-03-30T07:55:11.474Z,2740
2017-03-30T07:55:51.969Z,3424
2017-03-30T07:56:32.488Z,3840
2017-03-30T07:57:12.979Z,4136
2017-03-30T07:57:53.493Z,4284
2017-03-30T07:58:33.959Z,4100
2017-03-30T07:59:14.437Z,4144
2017-03-30T07:59:54.916Z,4432
2017-03-30T08:00:35.433Z,4648
2017-03-30T08:01:15.937Z,4712
2017-03-30T08:01:56.397Z,4444
2017-03-30T08:02:36.873Z,4332
2017-03-30T08:03:17.393Z,3764
2017-03-30T08:03:57.861Z,3060
2017-03-30T08:04:38.340Z,2764
2017-03-30T08:05:18.810Z,2796
2017-03-30T08:05:59.290Z,2728
2017-03-30T08:06:39.784Z,2900
2017-03-30T08:07:20.364Z,3368
2017-03-30T08:08:00.830Z,3796
2017-03-30T08:08:41.376Z,4036
2017-03-30T08:09:21.857Z,4504
2017-03-30T08:10:02.337Z,4444
2017-03-30T08:10:42.851Z,4516
2017-03-30T08:11:23.335Z,4512
2017-03-30T08:12:03.984Z,4984
2017-03-30T08:12:44.486Z,5640
2017-03-30T08:13:25.035Z,6032
2017-03-30T08:14:05.589Z,5888
2017-03-30T08:14:46.086Z,5972
2017-03-30T08:15:26.572Z,5692
2017-03-30T08:16:07.059Z,5080
2017-03-30T08:16:47.551Z,4856
2017-03-30T08:17:28.056Z,5080
2017-03-30T08:18:08.666Z,5372
2017-03-30T08:18:49.185Z,5468
2017-03-30T08:19:29.705Z,5512
2017-03-30T08:20:10.775Z,5748
2017-03-30T08:20:51.265Z,6032
2017-03-30T08:21:31.759Z,6444
2017-03-30T08:22:12.237Z,6876
2017-03-30T08:24:26.215Z,7748
2017-03-30T08:25:06.479Z,7636
2017-03-30T08:25:47.117Z,7000
2017-03-30T08:26:27.575Z,6972
2017-03-30T08:27:08.045Z,7272
2017-03-30T08:27:48.544Z,6956
2017-03-30T08:28:29.141Z,6216
2017-03-30T08:29:09.629Z,5636
2017-03-30T08:29:50.147Z,5252
2017-03-30T08:30:30.714Z,5180
2017-03-30T08:31:11.233Z,4920
2017-03-30T08:31:51.687Z,4508
2017-03-30T08:32:32.140Z,4104
2017-03-30T08:33:12.642Z,4264
2017-03-30T08:33:53.106Z,4528
2017-03-30T08:34:33.593Z,4832
2017-03-30T08:35:14.065Z,5044
2017-03-30T08:35:54.678Z,5540
2017-03-30T08:36:35.140Z,5956
2017-03-30T08:37:15.604Z,6336
2017-03-30T08:37:56.114Z,6568
2017-03-30T08:38:36.602Z,6360
2017-03-30T08:39:17.080Z,5960
2017-03-30T08:39:57.597Z,5704
2017-03-30T08:40:38.123Z,5592
2017-03-30T08:41:18.699Z,5816
2017-03-30T08:41:59.222Z,6240
2017-03-30T08:42:39.698Z,6640
2017-03-30T08:43:20.159Z,6728
2017-03-30T08:44:00.754Z,6524
2017-03-30T08:44:41.223Z,6464
2017-03-30T08:45:21.818Z,6272
2017-03-30T08:46:02.340Z,5784
2017-03-30T08:46:42.821Z,5500
2017-03-30T08:47:23.295Z,5412
2017-03-30T08:48:03.752Z,5612
2017-03-30T08:48:44.313Z,5832
2017-03-30T08:49:24.809Z,5840
2017-03-30T08:50:05.319Z,5808
2017-03-30T08:50:45.769Z,5688
2017-03-30T08:51:26.261Z,5808
2017-03-30T08:52:06.733Z,6288
2017-03-30T08:52:47.249Z,6724
2017-03-30T08:53:27.701Z,6868
2017-03-30T08:54:08.325Z,6756
2017-03-30T08:54:48.816Z,6736
2017-03-30T08:55:29.346Z,6864
2017-03-30T08:56:09.876Z,7268
2017-03-30T08:56:50.365Z,7852
2017-03-30T08:57:31.051Z,8028
2017-03-30T08:58:11.541Z,8272
2017-03-30T08:58:52.052Z,8952
2017-03-30T08:59:32.552Z,9048
2017-03-30T09:00:13.085Z,9172
2017-03-30T09:00:53.543Z,9792
2017-03-30T09:01:34.086Z,9896
2017-03-30T09:02:14.583Z,9672
2017-03-30T09:02:55.149Z,9448
2017-03-30T09:03:35.624Z,9292
2017-03-30T09:04:16.064Z,9500
2017-03-30T09:04:56.578Z,9400
2017-03-30T09:05:37.055Z,8916
2017-03-30T09:06:17.537Z,8412
2017-03-30T09:06:58.170Z,8080
2017-03-30T09:07:38.623Z,7688
2017-03-30T09:08:19.097Z,7408
2017-03-30T09:08:59.569Z,7496
2017-03-30T09:09:40.033Z,7692
2017-03-30T09:10:20.730Z,7792
2017-03-30T09:11:01.181Z,7948
2017-03-30T09:11:41.746Z,8304
2017-03-30T09:12:25.375Z,8404
2017-03-30T09:13:04.929Z,8820
2017-03-30T09:13:45.477Z,8988
2017-03-30T09:14:26.004Z,9808
2017-03-30T09:15:06.463Z,10640
2017-03-30T09:15:46.966Z,10408
2017-03-30T09:16:27.517Z,9596
2017-03-30T09:17:08.107Z,8896
2017-03-30T09:17:48.565Z,8132
2017-03-30T09:18:29.046Z,7260
2017-03-30T09:19:09.537Z,6912
2017-03-30T09:19:50.029Z,6736
2017-03-30T09:20:30.523Z,6656
2017-03-30T09:21:11.006Z,6896
2017-03-30T09:21:51.491Z,6888
2017-03-30T09:22:34.729Z,6596
2017-03-30T09:23:15.351Z,6972
2017-03-30T09:23:58.640Z,7028
2017-03-30T09:24:39.784Z,7800
2017-03-30T09:25:20.322Z,8808
2017-03-30T09:26:01.263Z,9588
2017-03-30T09:26:41.993Z,11172
2017-03-30T09:27:23.453Z,12676
2017-03-30T09:28:04.296Z,13944
2017-03-30T09:28:44.834Z,13592
2017-03-30T09:29:25.366Z,12668
2017-03-30T09:30:05.831Z,11648
2017-03-30T09:30:46.281Z,10888
2017-03-30T09:31:26.771Z,10028
2017-03-30T09:32:07.283Z,9108
2017-03-30T09:32:47.792Z,8244
2017-03-30T09:33:28.314Z,7832
2017-03-30T09:34:10.316Z,7744
2017-03-30T09:34:50.888Z,7904
2017-03-30T09:35:31.401Z,8044
2017-03-30T09:36:11.852Z,7672
2017-03-30T09:36:52.325Z,7564
2017-03-30T09:37:32.807Z,8056
2017-03-30T09:38:13.277Z,8092
2017-03-30T09:38:53.800Z,7964
2017-03-30T09:39:34.253Z,7892
2017-03-30T09:40:14.801Z,7780
2017-03-30T09:40:55.304Z,7548
2017-03-30T09:41:35.820Z,7616
2017-03-30T09:42:16.337Z,8044
2017-03-30T09:42:56.780Z,8232
2017-03-30T09:43:37.262Z,7924